sensor_id;sensor_type;location;lat;lon;timestamp;temperature;humidity
21001;DHT22;10658;50.920;12.238;2022-12-07T00:03:08;2.20;99.90
21001;DHT22;10658;50.920;12.238;2022-12-07T00:07:10;2.20;99.90
21001;DHT22;10658;50.920;12.238;2022-12-07T00:11:17;2.10;99.90
21001;DHT22;10658;50.920;12.238;2022-12-07T00:15:19;2.10;99.90
21001;DHT22;10658;50.920;12.238;2022-12-07T00:19:20;2.10;99.90
21001;DHT22;10658;50.920;12.238;2022-12-07T00:23:22;2.10;99.90
21001;DHT22;10658;50.920;12.238;2022-12-07T00:27:22;2.00;99.90
21001;DHT22;10658;50.920;12.238;2022-12-07T00:31:29;1.80;99.90
21001;DHT22;10658;50.920;12.238;2022-12-07T00:35:30;1.70;99.90
21001;DHT22;10658;50.920;12.238;2022-12-07T00:39:32;1.50;99.90
21001;DHT22;10658;50.920;12.238;2022-12-07T00:43:34;1.40;99.90
21001;DHT22;10658;50.920;12.238;2022-12-07T00:47:36;1.40;99.90
21001;DHT22;10658;50.920;12.238;2022-12-07T00:51:37;1.30;99.90
21001;DHT22;10658;50.920;12.238;2022-12-07T00:55:39;1.20;99.90
21001;DHT22;10658;50.920;12.238;2022-12-07T00:59:41;1.20;99.90
21001;DHT22;10658;50.920;12.238;2022-12-07T01:03:42;1.20;99.90
21001;DHT22;10658;50.920;12.238;2022-12-07T01:07:43;1.20;99.90
21001;DHT22;10658;50.920;12.238;2022-12-07T01:11:45;1.20;99.90
21001;DHT22;10658;50.920;12.238;2022-12-07T01:15:46;1.20;99.90
21001;DHT22;10658;50.920;12.238;2022-12-07T01:19:47;1.10;99.90
21001;DHT22;10658;50.920;12.238;2022-12-07T01:23:48;1.10;99.90
21001;DHT22;10658;50.920;12.238;2022-12-07T01:27:50;1.10;99.90
21001;DHT22;10658;50.920;12.238;2022-12-07T01:31:51;1.00;99.90
21001;DHT22;10658;50.920;12.238;2022-12-07T01:35:52;0.90;99.90
21001;DHT22;10658;50.920;12.238;2022-12-07T01:39:53;0.80;99.90
21001;DHT22;10658;50.920;12.238;2022-12-07T01:48:20;0.60;99.90
21001;DHT22;10658;50.920;12.238;2022-12-07T01:52:31;0.50;99.90
21001;DHT22;10658;50.920;12.238;2022-12-07T02:01:56;0.40;99.90
21001;DHT22;10658;50.920;12.238;2022-12-07T02:05:58;0.30;99.90
21001;DHT22;10658;50.920;12.238;2022-12-07T02:14:17;0.10;99.90
21001;DHT22;10658;50.920;12.238;2022-12-07T02:27:50;0.10;99.90
21001;DHT22;10658;50.920;12.238;2022-12-07T02:32:13;0.20;99.90
21001;DHT22;10658;50.920;12.238;2022-12-07T02:36:21;0.20;99.90
21001;DHT22;10658;50.920;12.238;2022-12-07T02:40:27;0.20;99.90
21001;DHT22;10658;50.920;12.238;2022-12-07T02:44:31;0.20;99.90
21001;DHT22;10658;50.920;12.238;2022-12-07T02:48:34;0.20;99.90
21001;DHT22;10658;50.920;12.238;2022-12-07T02:52:35;0.20;99.90
21001;DHT22;10658;50.920;12.238;2022-12-07T03:01:13;0.20;99.90
21001;DHT22;10658;50.920;12.238;2022-12-07T03:09:43;0.30;99.90
21001;DHT22;10658;50.920;12.238;2022-12-07T03:14:03;0.30;99.90
21001;DHT22;10658;50.920;12.238;2022-12-07T03:18:07;0.40;99.90
21001;DHT22;10658;50.920;12.238;2022-12-07T03:22:13;0.40;99.90
21001;DHT22;10658;50.920;12.238;2022-12-07T03:26:15;0.40;99.90
21001;DHT22;10658;50.920;12.238;2022-12-07T03:30:28;0.40;99.90
21001;DHT22;10658;50.920;12.238;2022-12-07T03:34:36;0.40;99.90
21001;DHT22;10658;50.920;12.238;2022-12-07T03:39:01;0.40;99.90
21001;DHT22;10658;50.920;12.238;2022-12-07T03:43:04;0.50;99.90
21001;DHT22;10658;50.920;12.238;2022-12-07T03:47:14;0.50;99.90
21001;DHT22;10658;50.920;12.238;2022-12-07T03:51:34;0.50;99.90
21001;DHT22;10658;50.920;12.238;2022-12-07T03:55:41;0.60;99.90
21001;DHT22;10658;50.920;12.238;2022-12-07T03:59:43;0.70;99.90
21001;DHT22;10658;50.920;12.238;2022-12-07T04:03:44;0.80;99.90
21001;DHT22;10658;50.920;12.238;2022-12-07T04:07:46;0.80;99.90
21001;DHT22;10658;50.920;12.238;2022-12-07T04:11:47;0.90;99.90
21001;DHT22;10658;50.920;12.238;2022-12-07T04:15:48;1.00;99.90
21001;DHT22;10658;50.920;12.238;2022-12-07T04:19:49;1.00;99.90
21001;DHT22;10658;50.920;12.238;2022-12-07T04:23:50;1.10;99.90
21001;DHT22;10658;50.920;12.238;2022-12-07T04:27:52;1.10;99.90
21001;DHT22;10658;50.920;12.238;2022-12-07T04:31:53;1.10;99.90
21001;DHT22;10658;50.920;12.238;2022-12-07T04:35:55;1.10;99.90
21001;DHT22;10658;50.920;12.238;2022-12-07T04:39:57;1.10;99.90
21001;DHT22;10658;50.920;12.238;2022-12-07T04:44:01;1.10;99.90
21001;DHT22;10658;50.920;12.238;2022-12-07T04:48:03;1.10;99.90
21001;DHT22;10658;50.920;12.238;2022-12-07T04:52:04;1.10;99.90
21001;DHT22;10658;50.920;12.238;2022-12-07T04:56:07;1.20;99.90
21001;DHT22;10658;50.920;12.238;2022-12-07T05:00:08;1.20;99.90
21001;DHT22;10658;50.920;12.238;2022-12-07T05:04:10;1.30;99.90
21001;DHT22;10658;50.920;12.238;2022-12-07T05:08:11;1.20;99.90
21001;DHT22;10658;50.920;12.238;2022-12-07T05:12:12;1.20;99.90
21001;DHT22;10658;50.920;12.238;2022-12-07T05:16:14;1.20;99.90
21001;DHT22;10658;50.920;12.238;2022-12-07T05:20:14;1.20;99.90
21001;DHT22;10658;50.920;12.238;2022-12-07T05:24:16;1.20;99.90
21001;DHT22;10658;50.920;12.238;2022-12-07T05:28:17;1.20;99.90
21001;DHT22;10658;50.920;12.238;2022-12-07T05:32:18;1.20;99.90
21001;DHT22;10658;50.920;12.238;2022-12-07T05:36:20;1.20;99.90
21001;DHT22;10658;50.920;12.238;2022-12-07T05:40:21;1.30;99.90
21001;DHT22;10658;50.920;12.238;2022-12-07T05:44:23;1.30;99.90
21001;DHT22;10658;50.920;12.238;2022-12-07T05:48:25;1.30;99.90
21001;DHT22;10658;50.920;12.238;2022-12-07T05:52:26;1.40;99.90
21001;DHT22;10658;50.920;12.238;2022-12-07T05:56:27;1.50;99.90
21001;DHT22;10658;50.920;12.238;2022-12-07T06:00:28;1.50;99.90
21001;DHT22;10658;50.920;12.238;2022-12-07T06:04:32;1.50;99.90
21001;DHT22;10658;50.920;12.238;2022-12-07T06:08:34;1.50;99.90
21001;DHT22;10658;50.920;12.238;2022-12-07T06:12:35;1.60;99.90
21001;DHT22;10658;50.920;12.238;2022-12-07T06:16:39;1.60;99.90
21001;DHT22;10658;50.920;12.238;2022-12-07T06:20:40;1.60;99.90
21001;DHT22;10658;50.920;12.238;2022-12-07T06:24:42;1.60;99.90
21001;DHT22;10658;50.920;12.238;2022-12-07T06:28:43;1.60;99.90
21001;DHT22;10658;50.920;12.238;2022-12-07T06:32:45;1.70;99.90
21001;DHT22;10658;50.920;12.238;2022-12-07T06:36:47;1.70;99.90
21001;DHT22;10658;50.920;12.238;2022-12-07T06:40:52;1.70;99.90
21001;DHT22;10658;50.920;12.238;2022-12-07T06:44:57;1.70;99.90
21001;DHT22;10658;50.920;12.238;2022-12-07T06:48:57;1.70;99.90
21001;DHT22;10658;50.920;12.238;2022-12-07T06:52:58;1.80;99.90
21001;DHT22;10658;50.920;12.238;2022-12-07T06:57:00;1.80;99.90
21001;DHT22;10658;50.920;12.238;2022-12-07T07:01:02;1.80;99.90
21001;DHT22;10658;50.920;12.238;2022-12-07T07:05:04;1.90;99.90
21001;DHT22;10658;50.920;12.238;2022-12-07T07:09:05;1.90;99.90
21001;DHT22;10658;50.920;12.238;2022-12-07T07:13:07;1.90;99.90
21001;DHT22;10658;50.920;12.238;2022-12-07T07:17:09;2.00;99.90
21001;DHT22;10658;50.920;12.238;2022-12-07T07:21:09;1.90;99.90
21001;DHT22;10658;50.920;12.238;2022-12-07T07:25:10;2.00;99.90
21001;DHT22;10658;50.920;12.238;2022-12-07T07:29:11;1.90;99.90
21001;DHT22;10658;50.920;12.238;2022-12-07T07:33:13;1.90;99.90
21001;DHT22;10658;50.920;12.238;2022-12-07T07:37:14;1.90;99.90
21001;DHT22;10658;50.920;12.238;2022-12-07T07:41:16;2.00;99.90
21001;DHT22;10658;50.920;12.238;2022-12-07T07:45:18;1.90;99.90
21001;DHT22;10658;50.920;12.238;2022-12-07T07:49:21;1.90;99.90
21001;DHT22;10658;50.920;12.238;2022-12-07T07:53:23;2.00;99.90
21001;DHT22;10658;50.920;12.238;2022-12-07T07:57:25;1.90;99.90
21001;DHT22;10658;50.920;12.238;2022-12-07T08:01:26;2.00;99.90
21001;DHT22;10658;50.920;12.238;2022-12-07T08:05:27;2.10;99.90
21001;DHT22;10658;50.920;12.238;2022-12-07T08:09:28;2.10;99.90
21001;DHT22;10658;50.920;12.238;2022-12-07T08:13:29;2.20;99.90
21001;DHT22;10658;50.920;12.238;2022-12-07T08:17:30;2.30;99.90
21001;DHT22;10658;50.920;12.238;2022-12-07T08:21:32;2.30;99.90
21001;DHT22;10658;50.920;12.238;2022-12-07T08:25:34;2.40;99.90
21001;DHT22;10658;50.920;12.238;2022-12-07T08:29:35;2.60;99.90
21001;DHT22;10658;50.920;12.238;2022-12-07T08:33:37;2.70;99.90
21001;DHT22;10658;50.920;12.238;2022-12-07T08:37:40;2.90;99.90
21001;DHT22;10658;50.920;12.238;2022-12-07T08:41:41;2.90;99.90
21001;DHT22;10658;50.920;12.238;2022-12-07T08:45:42;2.90;99.90
21001;DHT22;10658;50.920;12.238;2022-12-07T08:49:46;2.90;99.90
21001;DHT22;10658;50.920;12.238;2022-12-07T08:53:50;3.10;99.90
21001;DHT22;10658;50.920;12.238;2022-12-07T08:57:52;3.20;99.90
21001;DHT22;10658;50.920;12.238;2022-12-07T09:01:53;3.20;99.90
21001;DHT22;10658;50.920;12.238;2022-12-07T09:05:55;3.30;99.90
21001;DHT22;10658;50.920;12.238;2022-12-07T09:09:56;3.40;99.90
21001;DHT22;10658;50.920;12.238;2022-12-07T09:13:57;3.40;99.90
21001;DHT22;10658;50.920;12.238;2022-12-07T09:17:59;3.60;99.90
21001;DHT22;10658;50.920;12.238;2022-12-07T09:22:00;3.70;99.90
21001;DHT22;10658;50.920;12.238;2022-12-07T09:26:03;3.70;99.90
21001;DHT22;10658;50.920;12.238;2022-12-07T09:30:06;3.80;99.90
21001;DHT22;10658;50.920;12.238;2022-12-07T09:34:08;3.70;99.90
21001;DHT22;10658;50.920;12.238;2022-12-07T09:38:09;3.70;99.90
21001;DHT22;10658;50.920;12.238;2022-12-07T09:46:32;3.80;99.90
21001;DHT22;10658;50.920;12.238;2022-12-07T09:50:39;3.90;99.90
21001;DHT22;10658;50.920;12.238;2022-12-07T09:54:45;3.90;99.90
21001;DHT22;10658;50.920;12.238;2022-12-07T09:58:47;4.00;99.90
21001;DHT22;10658;50.920;12.238;2022-12-07T10:06:58;4.00;99.90
21001;DHT22;10658;50.920;12.238;2022-12-07T10:11:01;4.00;99.90
21001;DHT22;10658;50.920;12.238;2022-12-07T10:15:05;4.00;99.90
21001;DHT22;10658;50.920;12.238;2022-12-07T10:19:23;4.00;99.90
21001;DHT22;10658;50.920;12.238;2022-12-07T10:23:24;4.10;99.90
21001;DHT22;10658;50.920;12.238;2022-12-07T10:27:32;4.00;99.90
21001;DHT22;10658;50.920;12.238;2022-12-07T10:31:39;4.10;99.90
21001;DHT22;10658;50.920;12.238;2022-12-07T10:35:43;4.20;99.90
21001;DHT22;10658;50.920;12.238;2022-12-07T10:39:51;4.20;99.90
21001;DHT22;10658;50.920;12.238;2022-12-07T10:43:55;4.20;99.90
21001;DHT22;10658;50.920;12.238;2022-12-07T10:48:41;4.30;99.90
21001;DHT22;10658;50.920;12.238;2022-12-07T11:10:15;4.60;99.90
21001;DHT22;10658;50.920;12.238;2022-12-07T11:14:41;4.60;99.90
21001;DHT22;10658;50.920;12.238;2022-12-07T11:22:59;4.70;99.90
21001;DHT22;10658;50.920;12.238;2022-12-07T11:40:31;4.80;99.90
21001;DHT22;10658;50.920;12.238;2022-12-07T11:44:57;4.90;99.90
21001;DHT22;10658;50.920;12.238;2022-12-07T11:49:13;4.80;99.90
21001;DHT22;10658;50.920;12.238;2022-12-07T11:53:20;4.80;99.90
21001;DHT22;10658;50.920;12.238;2022-12-07T11:57:42;4.70;99.90
21001;DHT22;10658;50.920;12.238;2022-12-07T12:02:00;4.80;99.90
21001;DHT22;10658;50.920;12.238;2022-12-07T12:06:04;4.80;99.90
21001;DHT22;10658;50.920;12.238;2022-12-07T12:10:21;4.90;99.90
21001;DHT22;10658;50.920;12.238;2022-12-07T12:23:07;5.20;99.90
21001;DHT22;10658;50.920;12.238;2022-12-07T12:27:25;5.30;99.90
21001;DHT22;10658;50.920;12.238;2022-12-07T12:35:38;5.40;99.90
21001;DHT22;10658;50.920;12.238;2022-12-07T12:39:40;5.60;99.90
21001;DHT22;10658;50.920;12.238;2022-12-07T12:43:46;5.50;99.90
21001;DHT22;10658;50.920;12.238;2022-12-07T12:48:10;5.60;99.90
21001;DHT22;10658;50.920;12.238;2022-12-07T12:57:09;5.40;99.90
21001;DHT22;10658;50.920;12.238;2022-12-07T13:01:39;5.20;99.90
21001;DHT22;10658;50.920;12.238;2022-12-07T13:05:41;5.20;99.90
21001;DHT22;10658;50.920;12.238;2022-12-07T13:09:44;5.20;99.90
21001;DHT22;10658;50.920;12.238;2022-12-07T13:13:46;5.20;99.90
21001;DHT22;10658;50.920;12.238;2022-12-07T13:17:58;5.30;99.90
21001;DHT22;10658;50.920;12.238;2022-12-07T13:22:02;5.30;99.90
21001;DHT22;10658;50.920;12.238;2022-12-07T13:26:18;5.10;99.90
21001;DHT22;10658;50.920;12.238;2022-12-07T13:30:21;5.00;99.90
21001;DHT22;10658;50.920;12.238;2022-12-07T13:34:39;4.90;99.90
21001;DHT22;10658;50.920;12.238;2022-12-07T13:38:49;4.90;99.90
21001;DHT22;10658;50.920;12.238;2022-12-07T13:43:02;4.90;99.90
21001;DHT22;10658;50.920;12.238;2022-12-07T13:51:25;4.60;99.90
21001;DHT22;10658;50.920;12.238;2022-12-07T13:55:30;4.50;99.90
21001;DHT22;10658;50.920;12.238;2022-12-07T13:59:31;4.40;99.90
21001;DHT22;10658;50.920;12.238;2022-12-07T14:03:36;4.30;99.90
21001;DHT22;10658;50.920;12.238;2022-12-07T14:07:53;4.30;99.90
21001;DHT22;10658;50.920;12.238;2022-12-07T14:11:56;4.30;99.90
21001;DHT22;10658;50.920;12.238;2022-12-07T14:15:59;4.20;99.90
21001;DHT22;10658;50.920;12.238;2022-12-07T14:20:03;4.20;99.90
21001;DHT22;10658;50.920;12.238;2022-12-07T14:24:18;4.10;99.90
21001;DHT22;10658;50.920;12.238;2022-12-07T14:28:31;4.00;99.90
21001;DHT22;10658;50.920;12.238;2022-12-07T14:32:34;4.00;99.90
21001;DHT22;10658;50.920;12.238;2022-12-07T14:36:36;3.80;99.90
21001;DHT22;10658;50.920;12.238;2022-12-07T14:40:38;3.80;99.90
21001;DHT22;10658;50.920;12.238;2022-12-07T14:44:39;3.70;99.90
21001;DHT22;10658;50.920;12.238;2022-12-07T14:48:41;3.70;99.90
21001;DHT22;10658;50.920;12.238;2022-12-07T14:52:45;3.60;99.90
21001;DHT22;10658;50.920;12.238;2022-12-07T14:56:47;3.50;99.90
21001;DHT22;10658;50.920;12.238;2022-12-07T15:00:51;3.50;99.90
21001;DHT22;10658;50.920;12.238;2022-12-07T15:04:52;3.60;99.90
21001;DHT22;10658;50.920;12.238;2022-12-07T15:08:53;3.50;99.90
21001;DHT22;10658;50.920;12.238;2022-12-07T15:12:56;3.40;99.90
21001;DHT22;10658;50.920;12.238;2022-12-07T15:17:20;3.40;99.90
21001;DHT22;10658;50.920;12.238;2022-12-07T15:21:21;3.40;99.90
21001;DHT22;10658;50.920;12.238;2022-12-07T15:25:23;3.40;99.90
21001;DHT22;10658;50.920;12.238;2022-12-07T15:29:24;3.30;99.90
21001;DHT22;10658;50.920;12.238;2022-12-07T15:33:25;3.20;99.90
21001;DHT22;10658;50.920;12.238;2022-12-07T15:37:27;3.20;99.90
21001;DHT22;10658;50.920;12.238;2022-12-07T15:41:29;3.10;99.90
21001;DHT22;10658;50.920;12.238;2022-12-07T15:45:30;3.00;99.90
21001;DHT22;10658;50.920;12.238;2022-12-07T15:49:31;2.90;99.90
21001;DHT22;10658;50.920;12.238;2022-12-07T15:53:33;2.90;99.90
21001;DHT22;10658;50.920;12.238;2022-12-07T15:57:36;2.90;99.90
21001;DHT22;10658;50.920;12.238;2022-12-07T16:01:38;2.90;99.90
21001;DHT22;10658;50.920;12.238;2022-12-07T16:05:39;2.90;99.90
21001;DHT22;10658;50.920;12.238;2022-12-07T16:09:40;2.90;99.90
21001;DHT22;10658;50.920;12.238;2022-12-07T16:13:41;3.00;99.90
21001;DHT22;10658;50.920;12.238;2022-12-07T16:17:42;2.90;99.90
21001;DHT22;10658;50.920;12.238;2022-12-07T16:21:42;2.90;99.90
21001;DHT22;10658;50.920;12.238;2022-12-07T16:25:44;2.80;99.90
21001;DHT22;10658;50.920;12.238;2022-12-07T16:29:45;2.80;99.90
21001;DHT22;10658;50.920;12.238;2022-12-07T16:33:47;2.80;99.90
21001;DHT22;10658;50.920;12.238;2022-12-07T16:37:49;2.80;99.90
21001;DHT22;10658;50.920;12.238;2022-12-07T16:41:50;2.70;99.90
21001;DHT22;10658;50.920;12.238;2022-12-07T16:45:53;2.70;99.90
21001;DHT22;10658;50.920;12.238;2022-12-07T16:49:54;2.80;99.90
21001;DHT22;10658;50.920;12.238;2022-12-07T16:53:55;2.70;99.90
21001;DHT22;10658;50.920;12.238;2022-12-07T16:57:59;2.60;99.90
21001;DHT22;10658;50.920;12.238;2022-12-07T17:02:00;2.60;99.90
21001;DHT22;10658;50.920;12.238;2022-12-07T17:06:01;2.60;99.90
21001;DHT22;10658;50.920;12.238;2022-12-07T17:10:24;2.50;99.90
21001;DHT22;10658;50.920;12.238;2022-12-07T17:14:26;2.60;99.90
21001;DHT22;10658;50.920;12.238;2022-12-07T17:18:46;2.60;99.90
21001;DHT22;10658;50.920;12.238;2022-12-07T17:23:09;2.60;99.90
21001;DHT22;10658;50.920;12.238;2022-12-07T17:27:10;2.50;99.90
21001;DHT22;10658;50.920;12.238;2022-12-07T17:31:14;2.50;99.90
21001;DHT22;10658;50.920;12.238;2022-12-07T17:35:15;2.40;99.90
21001;DHT22;10658;50.920;12.238;2022-12-07T17:39:18;2.40;99.90
21001;DHT22;10658;50.920;12.238;2022-12-07T17:43:21;2.30;99.90
21001;DHT22;10658;50.920;12.238;2022-12-07T17:47:22;2.20;99.90
21001;DHT22;10658;50.920;12.238;2022-12-07T17:51:23;2.20;99.90
21001;DHT22;10658;50.920;12.238;2022-12-07T17:55:44;2.20;99.90
21001;DHT22;10658;50.920;12.238;2022-12-07T17:59:46;2.20;99.90
21001;DHT22;10658;50.920;12.238;2022-12-07T18:03:47;2.20;99.90
21001;DHT22;10658;50.920;12.238;2022-12-07T18:07:48;2.20;99.90
21001;DHT22;10658;50.920;12.238;2022-12-07T18:11:49;2.10;99.90
21001;DHT22;10658;50.920;12.238;2022-12-07T18:15:59;2.10;99.90
21001;DHT22;10658;50.920;12.238;2022-12-07T18:20:00;2.10;99.90
21001;DHT22;10658;50.920;12.238;2022-12-07T18:24:02;2.10;99.90
21001;DHT22;10658;50.920;12.238;2022-12-07T18:28:05;2.10;99.90
21001;DHT22;10658;50.920;12.238;2022-12-07T18:32:06;2.10;99.90
21001;DHT22;10658;50.920;12.238;2022-12-07T18:36:08;2.10;99.90
21001;DHT22;10658;50.920;12.238;2022-12-07T18:40:09;2.00;99.90
21001;DHT22;10658;50.920;12.238;2022-12-07T18:44:11;1.90;99.90
21001;DHT22;10658;50.920;12.238;2022-12-07T18:48:14;1.90;99.90
21001;DHT22;10658;50.920;12.238;2022-12-07T18:52:16;1.80;99.90
21001;DHT22;10658;50.920;12.238;2022-12-07T18:56:19;1.80;99.90
21001;DHT22;10658;50.920;12.238;2022-12-07T19:00:25;1.90;99.90
21001;DHT22;10658;50.920;12.238;2022-12-07T19:04:27;2.00;99.90
21001;DHT22;10658;50.920;12.238;2022-12-07T19:08:28;2.00;99.90
21001;DHT22;10658;50.920;12.238;2022-12-07T19:12:29;2.00;99.90
21001;DHT22;10658;50.920;12.238;2022-12-07T19:16:30;2.00;99.90
21001;DHT22;10658;50.920;12.238;2022-12-07T19:20:32;2.10;99.90
21001;DHT22;10658;50.920;12.238;2022-12-07T19:24:35;2.10;99.90
21001;DHT22;10658;50.920;12.238;2022-12-07T19:28:36;2.10;99.90
21001;DHT22;10658;50.920;12.238;2022-12-07T19:32:37;2.10;99.90
21001;DHT22;10658;50.920;12.238;2022-12-07T19:36:38;2.10;99.90
21001;DHT22;10658;50.920;12.238;2022-12-07T19:40:40;2.10;99.90
21001;DHT22;10658;50.920;12.238;2022-12-07T19:44:41;2.10;99.90
21001;DHT22;10658;50.920;12.238;2022-12-07T19:48:44;2.20;99.90
21001;DHT22;10658;50.920;12.238;2022-12-07T19:52:45;2.20;99.90
21001;DHT22;10658;50.920;12.238;2022-12-07T19:56:47;2.20;99.90
21001;DHT22;10658;50.920;12.238;2022-12-07T20:00:49;2.20;99.90
21001;DHT22;10658;50.920;12.238;2022-12-07T20:04:50;2.30;99.90
21001;DHT22;10658;50.920;12.238;2022-12-07T20:08:52;2.40;99.90
21001;DHT22;10658;50.920;12.238;2022-12-07T20:12:53;2.50;99.90
21001;DHT22;10658;50.920;12.238;2022-12-07T20:17:12;2.40;99.90
21001;DHT22;10658;50.920;12.238;2022-12-07T20:21:13;2.40;99.90
21001;DHT22;10658;50.920;12.238;2022-12-07T20:25:14;2.50;99.90
21001;DHT22;10658;50.920;12.238;2022-12-07T20:29:20;2.50;99.90
21001;DHT22;10658;50.920;12.238;2022-12-07T20:33:22;2.50;99.90
21001;DHT22;10658;50.920;12.238;2022-12-07T20:37:23;2.50;99.90
21001;DHT22;10658;50.920;12.238;2022-12-07T20:41:25;2.50;99.90
21001;DHT22;10658;50.920;12.238;2022-12-07T20:45:45;2.40;99.90
21001;DHT22;10658;50.920;12.238;2022-12-07T20:49:47;2.40;99.90
21001;DHT22;10658;50.920;12.238;2022-12-07T20:53:48;2.40;99.90
21001;DHT22;10658;50.920;12.238;2022-12-07T20:57:49;2.40;99.90
21001;DHT22;10658;50.920;12.238;2022-12-07T21:01:50;2.30;99.90
21001;DHT22;10658;50.920;12.238;2022-12-07T21:05:53;2.30;99.90
21001;DHT22;10658;50.920;12.238;2022-12-07T21:09:54;2.30;99.90
21001;DHT22;10658;50.920;12.238;2022-12-07T21:13:57;2.10;99.90
21001;DHT22;10658;50.920;12.238;2022-12-07T21:17:58;2.10;99.90
21001;DHT22;10658;50.920;12.238;2022-12-07T21:21:59;2.00;99.90
21001;DHT22;10658;50.920;12.238;2022-12-07T21:26:11;2.00;99.90
21001;DHT22;10658;50.920;12.238;2022-12-07T21:30:12;2.00;99.90
21001;DHT22;10658;50.920;12.238;2022-12-07T21:34:13;2.00;99.90
21001;DHT22;10658;50.920;12.238;2022-12-07T21:38:14;2.10;99.90
21001;DHT22;10658;50.920;12.238;2022-12-07T21:42:16;2.00;99.90
21001;DHT22;10658;50.920;12.238;2022-12-07T21:46:18;2.10;99.90
21001;DHT22;10658;50.920;12.238;2022-12-07T21:50:20;2.00;99.90
21001;DHT22;10658;50.920;12.238;2022-12-07T21:54:22;2.00;99.90
21001;DHT22;10658;50.920;12.238;2022-12-07T21:58:23;2.10;99.90
21001;DHT22;10658;50.920;12.238;2022-12-07T22:02:24;2.00;99.90
21001;DHT22;10658;50.920;12.238;2022-12-07T22:06:26;2.10;99.90
21001;DHT22;10658;50.920;12.238;2022-12-07T22:10:27;2.30;99.90
21001;DHT22;10658;50.920;12.238;2022-12-07T22:14:28;2.30;99.90
21001;DHT22;10658;50.920;12.238;2022-12-07T22:18:50;2.20;99.90
21001;DHT22;10658;50.920;12.238;2022-12-07T22:22:51;2.20;99.90
21001;DHT22;10658;50.920;12.238;2022-12-07T22:26:52;2.20;99.90
21001;DHT22;10658;50.920;12.238;2022-12-07T22:30:54;2.20;99.90
21001;DHT22;10658;50.920;12.238;2022-12-07T22:35:02;2.10;99.90
21001;DHT22;10658;50.920;12.238;2022-12-07T22:39:04;2.10;99.90
21001;DHT22;10658;50.920;12.238;2022-12-07T22:43:05;2.00;99.90
21001;DHT22;10658;50.920;12.238;2022-12-07T22:47:07;1.90;99.90
21001;DHT22;10658;50.920;12.238;2022-12-07T22:51:24;1.80;99.90
21001;DHT22;10658;50.920;12.238;2022-12-07T22:55:25;1.80;99.90
21001;DHT22;10658;50.920;12.238;2022-12-07T22:59:27;1.70;99.90
21001;DHT22;10658;50.920;12.238;2022-12-07T23:03:27;1.60;99.90
21001;DHT22;10658;50.920;12.238;2022-12-07T23:07:29;1.60;99.90
21001;DHT22;10658;50.920;12.238;2022-12-07T23:11:33;1.70;99.90
21001;DHT22;10658;50.920;12.238;2022-12-07T23:15:53;1.90;99.90
21001;DHT22;10658;50.920;12.238;2022-12-07T23:19:55;2.00;99.90
21001;DHT22;10658;50.920;12.238;2022-12-07T23:23:57;2.10;99.90
21001;DHT22;10658;50.920;12.238;2022-12-07T23:27:58;2.10;99.90
21001;DHT22;10658;50.920;12.238;2022-12-07T23:32:00;2.10;99.90
21001;DHT22;10658;50.920;12.238;2022-12-07T23:36:13;2.20;99.90
21001;DHT22;10658;50.920;12.238;2022-12-07T23:40:16;2.30;99.90
21001;DHT22;10658;50.920;12.238;2022-12-07T23:44:18;2.20;99.90
21001;DHT22;10658;50.920;12.238;2022-12-07T23:48:19;2.20;99.90
21001;DHT22;10658;50.920;12.238;2022-12-07T23:52:20;2.20;99.90
21001;DHT22;10658;50.920;12.238;2022-12-07T23:56:24;2.20;99.90
